Time;durP1;ratioP1;P1;durP2;ratioP2;P2;SDS_P1;SDS_P2;PMS_P1;PMS_P2;Temp;Humidity;BMP_temperature;BMP_pressure;BME280_temperature;BME280_humidity;BME280_pressure;Samples;Min_cycle;Max_cycle;Signal;HPM_P1;HPM_P2
2021/03/22 00:01:51;;;;;;;15.30;13.10;;;;;;;;;;5037939;28;20440;-10
2021/03/22 00:04:19;;;;;;;14.90;13.40;;;;;;;;;;5037993;28;20892;-10
2021/03/22 00:06:48;;;;;;;17.97;14.97;;;;;;;;;;5039249;28;20435;-10
2021/03/22 00:09:15;;;;;;;14.40;13.13;;;;;;;;;;5038263;28;20462;-10
2021/03/22 00:11:42;;;;;;;14.03;12.53;;;;;;;;;;5022232;28;20833;-10
2021/03/22 00:14:09;;;;;;;16.10;13.70;;;;;;;;;;5039574;28;20449;-10
2021/03/22 00:16:36;;;;;;;15.23;13.60;;;;;;;;;;5038961;28;20831;-10
2021/03/22 00:19:04;;;;;;;23.47;13.30;;;;;;;;;;5038570;28;21111;-9
2021/03/22 00:21:32;;;;;;;17.63;13.60;;;;;;;;;;5037801;28;20502;-9
2021/03/22 00:23:59;;;;;;;17.47;14.17;;;;;;;;;;5038823;28;20766;-10
2021/03/22 00:26:29;;;;;;;17.30;13.77;;;;;;;;;;5038298;28;21002;-10
2021/03/22 00:28:56;;;;;;;14.93;13.13;;;;;;;;;;5037179;28;20446;-10
2021/03/22 00:31:23;;;;;;;16.80;12.40;;;;;;;;;;5019371;28;20457;-11
2021/03/22 00:33:50;;;;;;;14.53;13.00;;;;;;;;;;5019854;28;20465;-10
2021/03/22 00:36:17;;;;;;;14.17;12.67;;;;;;;;;;5036931;28;20454;-9
2021/03/22 00:38:45;;;;;;;13.20;11.90;;;;;;;;;;5038030;28;20439;-10
2021/03/22 00:41:12;;;;;;;14.80;12.73;;;;;;;;;;5037637;28;20461;-9
2021/03/22 00:43:39;;;;;;;19.90;13.17;;;;;;;;;;5039290;28;20434;-9
2021/03/22 00:46:07;;;;;;;16.23;13.80;;;;;;;;;;5038241;28;20443;-10
2021/03/22 00:48:35;;;;;;;17.60;13.00;;;;;;;;;;5020750;28;20554;-9
2021/03/22 00:51:04;;;;;;;14.30;12.80;;;;;;;;;;5037967;28;20489;-10
2021/03/22 00:53:31;;;;;;;15.00;12.70;;;;;;;;;;5038649;28;20541;-10
2021/03/22 00:56:01;;;;;;;23.13;13.30;;;;;;;;;;5037677;28;20457;-10
2021/03/22 00:58:29;;;;;;;13.70;12.23;;;;;;;;;;5037847;28;20458;-10
2021/03/22 01:00:56;;;;;;;13.53;12.13;;;;;;;;;;5038493;28;20486;-10
2021/03/22 01:03:24;;;;;;;16.10;12.50;;;;;;;;;;5038771;28;20442;-9
2021/03/22 01:05:51;;;;;;;16.70;13.67;;;;;;;;;;5036945;28;20462;-9
2021/03/22 01:08:18;;;;;;;20.00;12.50;;;;;;;;;;5036971;28;20431;-10
2021/03/22 01:10:46;;;;;;;18.37;13.17;;;;;;;;;;5020154;28;20458;-9
2021/03/22 01:13:17;;;;;;;18.00;12.90;;;;;;;;;;5038365;28;20443;-10
2021/03/22 01:15:44;;;;;;;14.13;12.17;;;;;;;;;;5035508;28;20442;-9
2021/03/22 01:18:12;;;;;;;19.80;13.17;;;;;;;;;;5037169;28;20442;-9
2021/03/22 01:20:41;;;;;;;15.30;12.43;;;;;;;;;;5039803;28;20721;-10
2021/03/22 01:23:08;;;;;;;24.90;14.20;;;;;;;;;;5039437;28;20572;-10
2021/03/22 01:25:35;;;;;;;19.20;12.63;;;;;;;;;;5040066;28;20779;-10
2021/03/22 01:28:04;;;;;;;22.37;13.73;;;;;;;;;;5037796;28;20445;-11
2021/03/22 01:30:37;;;;;;;13.33;12.13;;;;;;;;;;5037324;28;20442;-9
2021/03/22 01:33:18;;;;;;;18.07;12.73;;;;;;;;;;5037611;28;20513;-11
2021/03/22 01:35:46;;;;;;;23.33;13.77;;;;;;;;;;5037839;28;20830;-9
2021/03/22 01:38:13;;;;;;;16.23;11.87;;;;;;;;;;5038802;28;20469;-10
2021/03/22 01:40:48;;;;;;;15.00;12.33;;;;;;;;;;5036175;28;20485;-10
2021/03/22 01:43:21;;;;;;;12.00;10.80;;;;;;;;;;5037756;28;20442;-9
2021/03/22 01:45:50;;;;;;;18.20;13.10;;;;;;;;;;5037789;28;20469;-10
2021/03/22 01:48:17;;;;;;;12.93;11.63;;;;;;;;;;5038136;28;20473;-10
2021/03/22 01:50:45;;;;;;;20.87;12.17;;;;;;;;;;5037731;28;20480;-9
2021/03/22 01:53:12;;;;;;;17.40;13.53;;;;;;;;;;5037557;28;20438;-9
2021/03/22 01:55:40;;;;;;;21.00;11.60;;;;;;;;;;5037728;28;20473;-10
2021/03/22 01:58:07;;;;;;;20.40;13.20;;;;;;;;;;5037159;28;20461;-9
2021/03/22 02:00:35;;;;;;;17.23;11.00;;;;;;;;;;5037241;28;20451;-10
2021/03/22 02:03:05;;;;;;;24.80;13.70;;;;;;;;;;5037404;28;20508;-10
2021/03/22 02:05:35;;;;;;;22.53;11.67;;;;;;;;;;5036859;28;20558;-10
2021/03/22 02:08:04;;;;;;;19.17;11.90;;;;;;;;;;5037769;28;20439;-10
2021/03/22 02:10:31;;;;;;;22.40;12.03;;;;;;;;;;5037929;28;20461;-9
2021/03/22 02:12:58;;;;;;;12.37;11.03;;;;;;;;;;5037701;28;20442;-11
2021/03/22 02:15:25;;;;;;;24.00;14.10;;;;;;;;;;5037936;28;20505;-10
2021/03/22 02:18:05;;;;;;;13.60;11.07;;;;;;;;;;5036958;28;20492;-9
2021/03/22 02:21:02;;;;;;;22.47;12.60;;;;;;;;;;5020748;28;20983;-10
2021/03/22 02:23:52;;;;;;;17.17;12.30;;;;;;;;;;5038290;28;20438;-10
2021/03/22 02:26:34;;;;;;;19.77;12.40;;;;;;;;;;5037551;28;20437;-10
2021/03/22 02:29:10;;;;;;;19.40;13.37;;;;;;;;;;5038625;28;20439;-9
2021/03/22 02:32:08;;;;;;;14.53;12.67;;;;;;;;;;5037628;28;20438;-10
2021/03/22 02:34:39;;;;;;;23.33;13.63;;;;;;;;;;4936920;29;20740;-10
2021/03/22 02:37:36;;;;;;;16.27;10.60;;;;;;;;;;5017849;28;20477;-11
2021/03/22 02:40:09;;;;;;;13.70;10.70;;;;;;;;;;4936260;29;20463;-10
2021/03/22 02:42:39;;;;;;;13.30;10.87;;;;;;;;;;5018276;28;20454;-10
2021/03/22 02:45:07;;;;;;;20.53;11.60;;;;;;;;;;5037182;28;20490;-10
2021/03/22 02:47:36;;;;;;;13.57;10.90;;;;;;;;;;5017738;28;20450;-9
2021/03/22 02:50:05;;;;;;;16.73;12.17;;;;;;;;;;5035921;28;20446;-9
2021/03/22 02:52:45;;;;;;;19.03;12.07;;;;;;;;;;5036448;28;20639;-10
2021/03/22 02:55:16;;;;;;;18.10;11.47;;;;;;;;;;5019054;28;20470;-9
2021/03/22 02:57:45;;;;;;;18.90;11.10;;;;;;;;;;5035957;28;20438;-9
2021/03/22 03:00:17;;;;;;;19.93;12.50;;;;;;;;;;5036539;28;20458;-10
2021/03/22 03:02:45;;;;;;;13.67;11.03;;;;;;;;;;5036247;28;20439;-10
2021/03/22 03:05:14;;;;;;;12.70;11.37;;;;;;;;;;5018831;28;20472;-10
2021/03/22 03:07:41;;;;;;;19.23;11.20;;;;;;;;;;5036840;28;20485;-10
2021/03/22 03:10:09;;;;;;;14.77;12.70;;;;;;;;;;5035430;28;20717;-10
2021/03/22 03:12:36;;;;;;;14.40;11.63;;;;;;;;;;5035422;28;21035;-10
2021/03/22 03:15:07;;;;;;;17.00;12.53;;;;;;;;;;5039242;28;20546;-9
2021/03/22 03:17:35;;;;;;;16.50;11.97;;;;;;;;;;5040178;28;20445;-9
2021/03/22 03:20:03;;;;;;;19.03;12.10;;;;;;;;;;5022459;28;20461;-10
2021/03/22 03:22:31;;;;;;;11.80;10.70;;;;;;;;;;5040009;28;20485;-10
2021/03/22 03:24:58;;;;;;;15.73;10.47;;;;;;;;;;5022635;28;20482;-11
2021/03/22 03:27:25;;;;;;;19.90;13.47;;;;;;;;;;5040530;28;20472;-10
2021/03/22 03:29:52;;;;;;;23.57;11.23;;;;;;;;;;5040419;28;20837;-9
2021/03/22 03:32:20;;;;;;;13.23;11.13;;;;;;;;;;5022639;28;20849;-10
2021/03/22 03:34:47;;;;;;;11.93;10.90;;;;;;;;;;5039415;28;20431;-9
2021/03/22 03:37:15;;;;;;;14.10;11.37;;;;;;;;;;5039946;28;20438;-11
2021/03/22 03:39:44;;;;;;;18.27;11.93;;;;;;;;;;5039112;28;20888;-11
2021/03/22 03:42:12;;;;;;;16.20;12.60;;;;;;;;;;5038934;28;20446;-9
2021/03/22 03:44:39;;;;;;;16.23;10.97;;;;;;;;;;5038839;28;20470;-9
2021/03/22 03:47:07;;;;;;;19.40;12.33;;;;;;;;;;5038349;28;20873;-9
2021/03/22 03:49:34;;;;;;;19.73;11.70;;;;;;;;;;5038686;28;20446;-10
2021/03/22 03:52:01;;;;;;;16.20;12.00;;;;;;;;;;5039597;28;20500;-9
2021/03/22 03:54:28;;;;;;;15.40;12.07;;;;;;;;;;5040058;28;20454;-10
2021/03/22 03:56:56;;;;;;;17.87;12.40;;;;;;;;;;5040361;28;20434;-9
2021/03/22 03:59:23;;;;;;;17.07;11.83;;;;;;;;;;5038906;28;20439;-10
2021/03/22 04:01:50;;;;;;;16.33;11.33;;;;;;;;;;5039106;28;20830;-10
2021/03/22 04:04:21;;;;;;;15.83;12.90;;;;;;;;;;5040131;28;20466;-10
2021/03/22 04:06:48;;;;;;;18.67;14.20;;;;;;;;;;5038807;28;20446;-10
2021/03/22 04:09:18;;;;;;;18.97;13.30;;;;;;;;;;5038946;28;20836;-10
2021/03/22 04:11:46;;;;;;;19.20;11.70;;;;;;;;;;5038664;28;20457;-10
2021/03/22 04:14:16;;;;;;;17.90;11.53;;;;;;;;;;5039161;28;20450;-10
2021/03/22 04:16:43;;;;;;;16.70;11.70;;;;;;;;;;5039005;28;20508;-9
2021/03/22 04:19:11;;;;;;;15.80;12.20;;;;;;;;;;5038604;28;20443;-10
2021/03/22 04:21:38;;;;;;;22.07;11.60;;;;;;;;;;5036836;28;20493;-9
2021/03/22 04:24:06;;;;;;;19.47;12.00;;;;;;;;;;5036797;28;20458;-11
2021/03/22 04:26:33;;;;;;;20.57;12.47;;;;;;;;;;5039236;28;20830;-10
2021/03/22 04:29:00;;;;;;;21.93;14.20;;;;;;;;;;5019318;28;20439;-9
2021/03/22 04:31:28;;;;;;;16.30;11.77;;;;;;;;;;5037222;28;20451;-10
2021/03/22 04:33:56;;;;;;;15.50;12.03;;;;;;;;;;5037387;28;20453;-10
2021/03/22 04:36:23;;;;;;;21.47;12.60;;;;;;;;;;5037016;28;20427;-10
2021/03/22 04:38:51;;;;;;;19.63;12.30;;;;;;;;;;5036125;28;20453;-12
2021/03/22 04:41:17;;;;;;;18.77;11.40;;;;;;;;;;5035945;28;20984;-10
2021/03/22 04:43:44;;;;;;;20.57;12.80;;;;;;;;;;5036197;28;20434;-11
2021/03/22 04:46:11;;;;;;;14.93;13.20;;;;;;;;;;5034810;28;20627;-10
2021/03/22 04:48:39;;;;;;;16.37;11.27;;;;;;;;;;5035136;28;20441;-11
2021/03/22 04:51:06;;;;;;;12.70;11.63;;;;;;;;;;5034604;28;20552;-10
2021/03/22 04:53:33;;;;;;;21.97;12.30;;;;;;;;;;5035582;28;20492;-10
2021/03/22 04:56:00;;;;;;;16.07;12.87;;;;;;;;;;5034970;28;20450;-10
2021/03/22 04:58:28;;;;;;;21.53;12.57;;;;;;;;;;5017498;28;20488;-8
2021/03/22 05:00:55;;;;;;;22.23;11.53;;;;;;;;;;5018237;28;20435;-9
2021/03/22 05:03:22;;;;;;;16.43;11.43;;;;;;;;;;5036090;28;20441;-10
2021/03/22 05:05:50;;;;;;;14.33;10.93;;;;;;;;;;5035349;28;20573;-10
2021/03/22 05:08:19;;;;;;;19.37;11.23;;;;;;;;;;5032943;28;20450;-9
2021/03/22 05:10:47;;;;;;;16.63;10.53;;;;;;;;;;5034688;28;20470;-9
2021/03/22 05:13:15;;;;;;;20.10;12.23;;;;;;;;;;5035073;28;20438;-8
2021/03/22 05:15:43;;;;;;;20.23;12.50;;;;;;;;;;5015897;28;20526;-8
2021/03/22 05:18:11;;;;;;;15.33;11.67;;;;;;;;;;5032556;28;20435;-9
2021/03/22 05:20:39;;;;;;;19.10;11.40;;;;;;;;;;5032519;28;20512;-8
2021/03/22 05:23:08;;;;;;;21.23;12.80;;;;;;;;;;5035300;28;20481;-9
2021/03/22 05:25:36;;;;;;;21.30;12.13;;;;;;;;;;5015167;28;20576;-10
2021/03/22 05:28:03;;;;;;;17.10;11.63;;;;;;;;;;5033658;28;20450;-10
2021/03/22 05:30:30;;;;;;;18.90;11.40;;;;;;;;;;5032756;28;20438;-9
2021/03/22 05:32:58;;;;;;;17.17;11.60;;;;;;;;;;4998397;28;20444;-9
2021/03/22 05:35:26;;;;;;;13.70;10.80;;;;;;;;;;5029911;28;20534;-9
2021/03/22 05:37:53;;;;;;;13.90;10.37;;;;;;;;;;5031609;28;20520;-9
2021/03/22 05:40:22;;;;;;;19.60;11.00;;;;;;;;;;5031920;28;20509;-10
2021/03/22 05:42:53;;;;;;;12.30;10.97;;;;;;;;;;5030229;28;20469;-8
2021/03/22 05:45:33;;;;;;;22.60;12.77;;;;;;;;;;5028594;28;20516;-9
2021/03/22 05:48:03;;;;;;;16.47;12.43;;;;;;;;;;5030323;28;20438;-10
2021/03/22 05:50:33;;;;;;;17.47;11.47;;;;;;;;;;5031517;28;20481;-10
2021/03/22 05:53:15;;;;;;;20.57;12.17;;;;;;;;;;5027849;28;20449;-10
2021/03/22 05:55:49;;;;;;;17.20;12.00;;;;;;;;;;5029304;28;20480;-10
2021/03/22 05:58:26;;;;;;;15.93;11.10;;;;;;;;;;5029134;28;20442;-9
2021/03/22 06:00:55;;;;;;;17.20;11.67;;;;;;;;;;5029398;28;20456;-10
2021/03/22 06:03:27;;;;;;;20.13;12.57;;;;;;;;;;5027965;28;20439;-9
2021/03/22 06:05:58;;;;;;;17.33;10.50;;;;;;;;;;5026870;28;20482;-10
2021/03/22 06:08:29;;;;;;;14.53;10.30;;;;;;;;;;5027106;28;20509;-10
2021/03/22 06:10:57;;;;;;;21.43;10.97;;;;;;;;;;5026347;28;20477;-10
2021/03/22 06:13:27;;;;;;;18.37;10.37;;;;;;;;;;5023971;28;20449;-11
2021/03/22 06:15:55;;;;;;;13.43;10.47;;;;;;;;;;5022070;28;20445;-11
2021/03/22 06:18:25;;;;;;;14.90;10.23;;;;;;;;;;5022746;28;20530;-11
2021/03/22 06:20:53;;;;;;;14.00;9.80;;;;;;;;;;5018279;28;20431;-9
2021/03/22 06:23:22;;;;;;;11.57;9.07;;;;;;;;;;5022185;28;20494;-10
2021/03/22 06:25:50;;;;;;;16.27;9.90;;;;;;;;;;5022654;28;20482;-9
2021/03/22 06:28:20;;;;;;;11.33;9.00;;;;;;;;;;5021961;28;20968;-10
2021/03/22 06:30:54;;;;;;;14.53;8.83;;;;;;;;;;4981999;28;20459;-9
2021/03/22 06:33:26;;;;;;;22.40;9.23;;;;;;;;;;4999096;28;20439;-8
2021/03/22 06:35:53;;;;;;;12.37;8.93;;;;;;;;;;4995301;28;20585;-9
2021/03/22 06:38:20;;;;;;;12.10;9.07;;;;;;;;;;4997000;28;20443;-10
2021/03/22 06:40:47;;;;;;;17.60;9.53;;;;;;;;;;4997925;28;20762;-10
2021/03/22 06:43:15;;;;;;;13.53;8.90;;;;;;;;;;4997345;28;20481;-9
2021/03/22 06:45:44;;;;;;;14.23;9.53;;;;;;;;;;4994234;28;20459;-9
2021/03/22 06:48:20;;;;;;;13.93;8.97;;;;;;;;;;4971671;28;20439;-10
2021/03/22 06:50:48;;;;;;;14.83;9.27;;;;;;;;;;4989250;28;20459;-10
2021/03/22 06:53:33;;;;;;;15.93;13.13;;;;;;;;;;4991513;28;20444;-11
2021/03/22 06:56:10;;;;;;;10.47;8.87;;;;;;;;;;4992737;28;20463;-9
2021/03/22 06:58:37;;;;;;;13.67;9.47;;;;;;;;;;4991893;28;20933;-10
2021/03/22 07:01:20;;;;;;;9.90;8.93;;;;;;;;;;4991538;28;20457;-13
2021/03/22 07:03:50;;;;;;;18.93;9.30;;;;;;;;;;4990711;28;20463;-12
2021/03/22 07:06:20;;;;;;;12.30;8.47;;;;;;;;;;4967398;28;20526;-13
2021/03/22 07:08:47;;;;;;;16.20;10.30;;;;;;;;;;4966085;28;20448;-13
2021/03/22 07:11:16;;;;;;;11.17;10.00;;;;;;;;;;4973434;28;20455;-11
2021/03/22 07:13:51;;;;;;;11.97;9.27;;;;;;;;;;4988372;28;20443;-12
2021/03/22 07:16:19;;;;;;;15.27;9.17;;;;;;;;;;4986907;28;20438;-12
2021/03/22 07:19:02;;;;;;;16.30;9.63;;;;;;;;;;4987815;28;20447;-12
2021/03/22 07:21:31;;;;;;;16.13;9.53;;;;;;;;;;4968352;28;20497;-13
2021/03/22 07:24:10;;;;;;;10.40;9.10;;;;;;;;;;4994055;28;20512;-12
2021/03/22 07:26:52;;;;;;;8.50;8.00;;;;;;;;;;4999283;28;20503;-12
2021/03/22 07:29:24;;;;;;;8.93;7.73;;;;;;;;;;5004832;28;20516;-12
2021/03/22 07:31:58;;;;;;;9.67;8.73;;;;;;;;;;4992842;28;20461;-12
2021/03/22 07:34:34;;;;;;;8.93;8.10;;;;;;;;;;5024234;28;20437;-12
2021/03/22 07:37:07;;;;;;;10.57;8.70;;;;;;;;;;5023119;28;21201;-12
2021/03/22 07:39:36;;;;;;;9.63;8.63;;;;;;;;;;5026669;28;20462;-12
2021/03/22 07:42:07;;;;;;;8.93;8.17;;;;;;;;;;4997521;28;20447;-12
2021/03/22 07:44:50;;;;;;;8.80;7.90;;;;;;;;;;4981903;28;20470;-12
2021/03/22 07:47:26;;;;;;;7.80;7.20;;;;;;;;;;4990223;28;20466;-12
2021/03/22 07:50:00;;;;;;;11.50;7.53;;;;;;;;;;4988483;28;20463;-12
2021/03/22 07:52:35;;;;;;;8.93;7.90;;;;;;;;;;4981461;28;20779;-12
2021/03/22 07:55:35;;;;;;;7.63;7.03;;;;;;;;;;4988847;28;20435;-11
2021/03/22 07:58:04;;;;;;;7.83;6.87;;;;;;;;;;5002426;28;20461;-11
2021/03/22 08:00:40;;;;;;;8.47;7.80;;;;;;;;;;5019041;28;20963;-11
2021/03/22 08:03:24;;;;;;;8.93;7.20;;;;;;;;;;5006601;28;20446;-13
2021/03/22 08:06:16;;;;;;;7.97;7.20;;;;;;;;;;5006491;28;20481;-13
2021/03/22 08:08:51;;;;;;;14.10;7.67;;;;;;;;;;4969642;28;20464;-12
2021/03/22 08:11:21;;;;;;;12.57;7.50;;;;;;;;;;4986364;28;20802;-13
2021/03/22 08:13:51;;;;;;;8.03;7.43;;;;;;;;;;4991645;28;20462;-12
2021/03/22 08:16:27;;;;;;;10.30;8.00;;;;;;;;;;4990967;28;20457;-13
2021/03/22 08:18:58;;;;;;;11.20;8.43;;;;;;;;;;4984163;28;20446;-13
2021/03/22 08:21:27;;;;;;;8.10;7.20;;;;;;;;;;5007751;28;20482;-12
2021/03/22 08:23:58;;;;;;;8.33;7.53;;;;;;;;;;5001586;28;20465;-12
2021/03/22 08:26:26;;;;;;;11.90;8.37;;;;;;;;;;5004333;28;21064;-12
2021/03/22 08:28:59;;;;;;;13.37;7.43;;;;;;;;;;5007961;28;20446;-12
2021/03/22 08:31:31;;;;;;;7.30;6.73;;;;;;;;;;5003134;28;20584;-13
2021/03/22 08:34:01;;;;;;;8.40;7.60;;;;;;;;;;5003153;28;20457;-14
2021/03/22 08:36:37;;;;;;;11.13;7.37;;;;;;;;;;5002809;28;20446;-9
2021/03/22 08:39:11;;;;;;;8.63;7.80;;;;;;;;;;4974628;28;20469;-10
2021/03/22 08:41:41;;;;;;;8.73;7.97;;;;;;;;;;4978694;28;20471;-10
2021/03/22 08:44:15;;;;;;;13.03;8.00;;;;;;;;;;4990165;28;21220;-9
2021/03/22 08:46:46;;;;;;;9.97;7.73;;;;;;;;;;4998787;28;20517;-9
2021/03/22 08:49:31;;;;;;;10.80;8.17;;;;;;;;;;5019790;28;20462;-10
2021/03/22 08:51:59;;;;;;;8.33;7.50;;;;;;;;;;5000851;28;20532;-9
2021/03/22 08:54:29;;;;;;;9.33;8.07;;;;;;;;;;4992631;28;20481;-8
2021/03/22 08:57:02;;;;;;;9.63;7.20;;;;;;;;;;5006965;28;20427;-11
2021/03/22 08:59:29;;;;;;;12.70;7.27;;;;;;;;;;5012574;28;20449;-12
2021/03/22 09:02:10;;;;;;;9.13;8.13;;;;;;;;;;4976324;28;20538;-13
2021/03/22 09:04:37;;;;;;;12.80;7.50;;;;;;;;;;4996052;28;20461;-13
2021/03/22 09:07:08;;;;;;;9.10;7.40;;;;;;;;;;4993844;28;21128;-12
2021/03/22 09:09:38;;;;;;;14.27;7.40;;;;;;;;;;4992980;28;20459;-13
2021/03/22 09:12:09;;;;;;;8.40;7.47;;;;;;;;;;4995115;28;20554;-13
2021/03/22 09:14:48;;;;;;;7.17;6.37;;;;;;;;;;4991038;28;20863;-13
2021/03/22 09:17:33;;;;;;;7.73;6.90;;;;;;;;;;4992889;28;20471;-12
2021/03/22 09:20:16;;;;;;;9.50;7.50;;;;;;;;;;4990742;28;20475;-11
2021/03/22 09:22:54;;;;;;;6.87;6.30;;;;;;;;;;4985260;28;20479;-10
2021/03/22 09:25:40;;;;;;;15.90;8.13;;;;;;;;;;4989837;28;20600;-10
2021/03/22 09:28:22;;;;;;;7.53;6.90;;;;;;;;;;5022708;28;20434;-10
2021/03/22 09:30:55;;;;;;;9.93;8.30;;;;;;;;;;5004063;28;20457;-10
2021/03/22 09:33:41;;;;;;;8.00;7.37;;;;;;;;;;5026329;28;20438;-9
2021/03/22 09:36:10;;;;;;;8.20;7.30;;;;;;;;;;5006143;28;20453;-9
2021/03/22 09:38:42;;;;;;;11.17;6.87;;;;;;;;;;5021819;28;20556;-9
2021/03/22 09:41:09;;;;;;;8.50;7.60;;;;;;;;;;5019163;28;20438;-10
2021/03/22 09:43:38;;;;;;;8.00;7.20;;;;;;;;;;5022269;28;20469;-10
2021/03/22 09:46:20;;;;;;;8.37;7.57;;;;;;;;;;5022898;28;20503;-10
2021/03/22 09:48:47;;;;;;;8.00;7.20;;;;;;;;;;5018092;28;20462;-10
2021/03/22 09:51:32;;;;;;;11.70;7.80;;;;;;;;;;5017840;28;20441;-10
2021/03/22 09:54:00;;;;;;;9.53;7.83;;;;;;;;;;5003171;28;20952;-11
2021/03/22 09:56:28;;;;;;;7.70;7.10;;;;;;;;;;5020882;28;20434;-10
2021/03/22 09:59:21;;;;;;;8.53;7.43;;;;;;;;;;5020973;28;20441;-11
2021/03/22 10:01:48;;;;;;;8.60;6.70;;;;;;;;;;4979309;28;20446;-10
2021/03/22 10:04:31;;;;;;;11.03;6.30;;;;;;;;;;4975005;28;21154;-11
2021/03/22 10:07:05;;;;;;;7.90;6.73;;;;;;;;;;4962377;28;20742;-10
2021/03/22 10:09:38;;;;;;;7.20;6.70;;;;;;;;;;4992898;28;20465;-10
2021/03/22 10:12:12;;;;;;;8.10;7.40;;;;;;;;;;4960407;28;20546;-11
2021/03/22 10:14:43;;;;;;;7.83;7.33;;;;;;;;;;4982811;28;20524;-10
2021/03/22 10:17:20;;;;;;;8.57;7.93;;;;;;;;;;4981751;28;20509;-11
2021/03/22 10:19:47;;;;;;;8.07;7.57;;;;;;;;;;4978031;28;20429;-10
2021/03/22 10:22:18;;;;;;;9.50;8.80;;;;;;;;;;4978439;28;20952;-9
2021/03/22 10:24:49;;;;;;;7.93;7.13;;;;;;;;;;4960845;28;21123;-10
2021/03/22 10:27:26;;;;;;;7.20;6.60;;;;;;;;;;4979272;28;20447;-10
2021/03/22 10:30:05;;;;;;;7.97;7.27;;;;;;;;;;4978753;28;20478;-8
2021/03/22 10:32:32;;;;;;;10.00;7.10;;;;;;;;;;4959370;28;20447;-10
2021/03/22 10:35:04;;;;;;;7.93;6.90;;;;;;;;;;4977527;28;20917;-10
2021/03/22 10:37:39;;;;;;;7.23;6.50;;;;;;;;;;4979495;28;20443;-9
2021/03/22 10:40:09;;;;;;;8.73;7.10;;;;;;;;;;4974569;28;20458;-11
2021/03/22 10:42:38;;;;;;;7.80;7.00;;;;;;;;;;4981212;28;20439;-9
2021/03/22 10:45:28;;;;;;;7.20;6.60;;;;;;;;;;4962583;28;20471;-10
2021/03/22 10:47:57;;;;;;;8.80;7.97;;;;;;;;;;4978572;28;20823;-11
2021/03/22 10:50:28;;;;;;;7.50;7.00;;;;;;;;;;5009101;28;20469;-10
2021/03/22 10:53:03;;;;;;;11.10;6.80;;;;;;;;;;5014939;28;20441;-10
2021/03/22 10:55:31;;;;;;;8.00;7.30;;;;;;;;;;5015194;28;20437;-9
2021/03/22 10:57:58;;;;;;;7.37;6.87;;;;;;;;;;5016771;28;20445;-13
2021/03/22 11:00:29;;;;;;;7.07;6.77;;;;;;;;;;4998469;28;20435;-10
2021/03/22 11:02:58;;;;;;;6.10;5.80;;;;;;;;;;4988215;28;20542;-11
2021/03/22 11:05:30;;;;;;;6.47;6.17;;;;;;;;;;4975145;28;20525;-10
2021/03/22 11:07:58;;;;;;;7.00;6.50;;;;;;;;;;4979670;28;20439;-11
2021/03/22 11:10:26;;;;;;;6.60;6.30;;;;;;;;;;4961176;28;20458;-12
2021/03/22 11:12:53;;;;;;;13.50;6.80;;;;;;;;;;4975050;28;20463;-11
2021/03/22 11:15:24;;;;;;;6.60;6.23;;;;;;;;;;4970733;28;20443;-11
2021/03/22 11:17:59;;;;;;;7.10;6.37;;;;;;;;;;4978608;28;21237;-10
2021/03/22 11:20:31;;;;;;;5.93;5.57;;;;;;;;;;4974228;28;20485;-10
2021/03/22 11:23:14;;;;;;;6.50;6.10;;;;;;;;;;4974879;28;20483;-12
2021/03/22 11:25:44;;;;;;;7.33;6.70;;;;;;;;;;4992488;28;20474;-12
2021/03/22 11:28:26;;;;;;;6.30;6.00;;;;;;;;;;4986253;28;20699;-11
2021/03/22 11:31:02;;;;;;;6.63;6.23;;;;;;;;;;4980625;28;20443;-10
2021/03/22 11:33:32;;;;;;;6.13;5.83;;;;;;;;;;4992404;28;20927;-10
2021/03/22 11:36:04;;;;;;;5.80;5.50;;;;;;;;;;4999413;28;20533;-11
2021/03/22 11:38:33;;;;;;;6.47;5.90;;;;;;;;;;4998897;28;20489;-11
2021/03/22 11:40:59;;;;;;;6.40;5.90;;;;;;;;;;4994674;28;20454;-12
2021/03/22 11:43:28;;;;;;;6.00;5.70;;;;;;;;;;4988496;28;20446;-11
2021/03/22 11:45:56;;;;;;;6.53;6.17;;;;;;;;;;4996739;28;20471;-11
2021/03/22 11:48:38;;;;;;;7.33;6.83;;;;;;;;;;4996619;28;20442;-12
2021/03/22 11:51:08;;;;;;;7.70;7.30;;;;;;;;;;4989682;28;20466;-11
2021/03/22 11:53:55;;;;;;;7.60;7.10;;;;;;;;;;4985115;28;20464;-10
2021/03/22 11:56:26;;;;;;;6.97;6.33;;;;;;;;;;4989461;28;20545;-12
2021/03/22 11:59:06;;;;;;;6.53;6.13;;;;;;;;;;4982968;28;20759;-11
2021/03/22 12:01:33;;;;;;;7.47;7.07;;;;;;;;;;4998954;28;20565;-12
2021/03/22 12:04:20;;;;;;;6.70;6.40;;;;;;;;;;4999365;28;20442;-10
2021/03/22 12:07:01;;;;;;;9.20;8.30;;;;;;;;;;5003604;28;20880;-11
2021/03/22 12:09:29;;;;;;;10.00;9.37;;;;;;;;;;5007374;28;20461;-12
2021/03/22 12:11:57;;;;;;;7.67;6.40;;;;;;;;;;4996145;28;20446;-10
2021/03/22 12:14:25;;;;;;;6.40;6.10;;;;;;;;;;4988762;28;20454;-11
2021/03/22 12:16:57;;;;;;;7.43;6.90;;;;;;;;;;4994126;28;20546;-10
2021/03/22 12:19:28;;;;;;;6.20;5.90;;;;;;;;;;4991733;28;20460;-10
2021/03/22 12:21:56;;;;;;;6.83;6.40;;;;;;;;;;4987204;28;20808;-11
2021/03/22 12:24:23;;;;;;;7.13;6.40;;;;;;;;;;4996491;28;20550;-11
2021/03/22 12:26:50;;;;;;;8.00;7.13;;;;;;;;;;4991659;28;20746;-9
2021/03/22 12:29:17;;;;;;;6.60;6.00;;;;;;;;;;4991896;28;20508;-11
2021/03/22 12:31:46;;;;;;;6.80;6.30;;;;;;;;;;4994995;28;21291;-12
2021/03/22 12:34:15;;;;;;;6.37;6.07;;;;;;;;;;4998025;28;20968;-11
2021/03/22 12:36:43;;;;;;;7.60;6.90;;;;;;;;;;4977931;28;20496;-10
2021/03/22 12:39:17;;;;;;;7.27;6.87;;;;;;;;;;4998084;28;20901;-10
2021/03/22 12:41:43;;;;;;;7.60;6.90;;;;;;;;;;4998077;28;21245;-11
2021/03/22 12:44:10;;;;;;;7.03;6.63;;;;;;;;;;4996208;28;20435;-10
2021/03/22 12:46:38;;;;;;;21.07;12.00;;;;;;;;;;4974172;28;20474;-11
2021/03/22 12:49:05;;;;;;;8.13;7.53;;;;;;;;;;4996091;28;21130;-12
2021/03/22 12:51:32;;;;;;;8.37;7.53;;;;;;;;;;5000773;28;21099;-12
2021/03/22 12:53:59;;;;;;;8.57;7.93;;;;;;;;;;4995739;28;21022;-11
2021/03/22 12:56:29;;;;;;;8.50;7.90;;;;;;;;;;4996231;28;20434;-10
2021/03/22 12:58:56;;;;;;;7.70;7.20;;;;;;;;;;4995843;28;20723;-12
2021/03/22 13:01:24;;;;;;;7.30;6.60;;;;;;;;;;4999108;28;20508;-10
2021/03/22 13:03:51;;;;;;;7.57;6.97;;;;;;;;;;4990871;28;20780;-11
2021/03/22 13:06:19;;;;;;;7.37;6.70;;;;;;;;;;4998906;28;20498;-11
2021/03/22 13:08:46;;;;;;;7.10;6.60;;;;;;;;;;4997631;28;20687;-12
2021/03/22 13:11:16;;;;;;;7.40;6.83;;;;;;;;;;4995484;28;20605;-12
2021/03/22 13:13:43;;;;;;;7.50;6.80;;;;;;;;;;4997538;28;20473;-12
2021/03/22 13:16:10;;;;;;;10.90;8.70;;;;;;;;;;4993617;28;20666;-12
2021/03/22 13:18:39;;;;;;;9.63;8.67;;;;;;;;;;4997351;28;20569;-12
2021/03/22 13:21:08;;;;;;;9.87;8.97;;;;;;;;;;4995076;28;20641;-12
2021/03/22 13:23:36;;;;;;;10.00;9.20;;;;;;;;;;4994013;28;20463;-12
2021/03/22 13:26:03;;;;;;;10.40;9.70;;;;;;;;;;4974619;28;20711;-13
2021/03/22 13:28:32;;;;;;;9.93;9.00;;;;;;;;;;4993636;28;20470;-10
2021/03/22 13:31:00;;;;;;;16.50;9.57;;;;;;;;;;4996314;28;20781;-10
2021/03/22 13:33:28;;;;;;;10.43;9.53;;;;;;;;;;4991892;28;20600;-11
2021/03/22 13:35:55;;;;;;;10.80;9.93;;;;;;;;;;4981046;28;20814;-11
2021/03/22 13:38:24;;;;;;;10.60;9.80;;;;;;;;;;4970870;28;20713;-10
2021/03/22 13:40:51;;;;;;;10.03;9.00;;;;;;;;;;4969829;28;20718;-10
2021/03/22 13:43:20;;;;;;;9.83;9.13;;;;;;;;;;4974262;28;20675;-10
2021/03/22 13:45:48;;;;;;;11.20;10.33;;;;;;;;;;4974947;28;21279;-10
2021/03/22 13:48:15;;;;;;;9.83;8.80;;;;;;;;;;4973332;28;20785;-11
2021/03/22 13:50:43;;;;;;;9.33;8.37;;;;;;;;;;4975204;28;21092;-12
2021/03/22 13:53:12;;;;;;;8.97;8.40;;;;;;;;;;4979323;28;20834;-11
2021/03/22 13:55:45;;;;;;;8.83;8.07;;;;;;;;;;4966612;28;20712;-11
2021/03/22 13:58:13;;;;;;;9.20;8.33;;;;;;;;;;4964319;28;20506;-12
2021/03/22 14:00:46;;;;;;;8.47;7.87;;;;;;;;;;4977859;28;20447;-11
2021/03/22 14:03:26;;;;;;;7.90;7.47;;;;;;;;;;5001883;28;20449;-9
2021/03/22 14:05:56;;;;;;;8.33;7.70;;;;;;;;;;5002810;28;20481;-11
2021/03/22 14:08:24;;;;;;;8.43;7.73;;;;;;;;;;4999349;28;20560;-11
2021/03/22 14:10:51;;;;;;;20.33;8.70;;;;;;;;;;4978555;28;20807;-11
2021/03/22 14:13:18;;;;;;;9.00;8.30;;;;;;;;;;4995256;28;20622;-11
2021/03/22 14:15:46;;;;;;;9.07;8.37;;;;;;;;;;4994352;28;20439;-10
2021/03/22 14:18:14;;;;;;;9.90;8.90;;;;;;;;;;4995501;28;20665;-11
2021/03/22 14:20:42;;;;;;;12.60;8.60;;;;;;;;;;4995398;28;21039;-13
2021/03/22 14:23:11;;;;;;;9.20;8.40;;;;;;;;;;4998763;28;21234;-12
2021/03/22 14:25:39;;;;;;;10.50;9.50;;;;;;;;;;4995013;28;21024;-11
2021/03/22 14:28:08;;;;;;;11.17;10.10;;;;;;;;;;4994717;28;20469;-10
2021/03/22 14:30:38;;;;;;;9.57;8.77;;;;;;;;;;4994947;28;20836;-11
2021/03/22 14:33:06;;;;;;;9.80;8.90;;;;;;;;;;4996551;28;20737;-11
2021/03/22 14:35:33;;;;;;;9.37;8.67;;;;;;;;;;4990450;28;20458;-12
2021/03/22 14:38:04;;;;;;;10.90;9.90;;;;;;;;;;4995442;28;20454;-11
2021/03/22 14:40:31;;;;;;;9.50;8.80;;;;;;;;;;4999066;28;20622;-11
2021/03/22 14:42:58;;;;;;;8.90;8.37;;;;;;;;;;4999636;28;20555;-11
2021/03/22 14:45:26;;;;;;;9.30;8.70;;;;;;;;;;4995295;28;20825;-11
2021/03/22 14:47:53;;;;;;;10.13;8.90;;;;;;;;;;4997670;28;20443;-11
2021/03/22 14:50:25;;;;;;;11.33;9.33;;;;;;;;;;4996936;28;20794;-11
2021/03/22 14:52:52;;;;;;;9.77;9.00;;;;;;;;;;4991490;28;20533;-10